KAL842 ZSQD-RKSI
Flight info
| Callsign | KAL842 |
|---|---|
| Flight time | 1h 17m |
| Altitude | 26600 |
| Route | LAT81D LATUX W209 AGAVO/N0418F270 Y644 REBIT REBIT1Y |
| Aircraft | A21N/M-SDE3FGHIRWY/LB1 |
Departure
| Time | 2026-05-05 01:54 |
|---|---|
| Airport | Qingdao Jiaodong International Airport (ZSQD) |
Arrival
| Time | 2026-05-05 03:12 |
|---|---|
| Airport | Incheon International Airport (RKSI) |
| Time | Latitude | Longitude | Altitude | Speed | Heading |
|---|---|---|---|---|---|
| 2026-05-05 01:41 | 36.36636 | 120.08127 | 29 ft | 0 kts | 342° |
| 2026-05-05 01:49 | 36.36641 | 120.08124 | 29 ft | 2 kts | 343° |
| 2026-05-05 01:49 | 36.36668 | 120.08115 | 28 ft | 5 kts | 340° |
| 2026-05-05 01:49 | 36.36708 | 120.08097 | 28 ft | 6 kts | 342° |
| 2026-05-05 01:49 | 36.36756 | 120.08076 | 28 ft | 6 kts | 316° |
| 2026-05-05 01:50 | 36.36754 | 120.08015 | 28 ft | 7 kts | 256° |
| 2026-05-05 01:50 | 36.36737 | 120.07951 | 28 ft | 7 kts | 252° |
| 2026-05-05 01:50 | 36.36720 | 120.07883 | 28 ft | 8 kts | 252° |
| 2026-05-05 01:50 | 36.36703 | 120.07816 | 28 ft | 8 kts | 252° |
| 2026-05-05 01:51 | 36.36684 | 120.07745 | 28 ft | 8 kts | 251° |
| 2026-05-05 01:51 | 36.36672 | 120.07672 | 28 ft | 8 kts | 281° |
| 2026-05-05 01:51 | 36.36721 | 120.07627 | 28 ft | 10 kts | 345° |
| 2026-05-05 01:51 | 36.36792 | 120.07603 | 28 ft | 11 kts | 341° |
| 2026-05-05 01:52 | 36.36821 | 120.07529 | 28 ft | 10 kts | 248° |
| 2026-05-05 01:52 | 36.36795 | 120.07445 | 28 ft | 10 kts | 251° |
| 2026-05-05 01:52 | 36.36772 | 120.07359 | 28 ft | 10 kts | 253° |
| 2026-05-05 01:52 | 36.36744 | 120.07311 | 28 ft | 5 kts | 166° |
| 2026-05-05 01:53 | 36.36716 | 120.07317 | 28 ft | 0 kts | 161° |
| 2026-05-05 01:53 | 36.36612 | 120.07359 | 29 ft | 47 kts | 162° |
| 2026-05-05 01:53 | 36.36075 | 120.07570 | 34 ft | 112 kts | 162° |
| 2026-05-05 01:54 | 36.35150 | 120.07930 | 116 ft | 157 kts | 162° |
| 2026-05-05 01:54 | 36.34112 | 120.08330 | 676 ft | 160 kts | 162° |
| 2026-05-05 01:54 | 36.33052 | 120.08762 | 1363 ft | 162 kts | 163° |
| 2026-05-05 01:54 | 36.32004 | 120.09178 | 2030 ft | 159 kts | 164° |
| 2026-05-05 01:55 | 36.30956 | 120.09589 | 2530 ft | 160 kts | 165° |
| 2026-05-05 01:55 | 36.29892 | 120.10004 | 3022 ft | 162 kts | 166° |
| 2026-05-05 01:55 | 36.28796 | 120.10431 | 3419 ft | 171 kts | 166° |
| 2026-05-05 01:55 | 36.27620 | 120.10899 | 3721 ft | 187 kts | 161° |
| 2026-05-05 01:56 | 36.26535 | 120.11915 | 4011 ft | 210 kts | 130° |
| 2026-05-05 01:56 | 36.25986 | 120.13667 | 4315 ft | 232 kts | 97° |
| 2026-05-05 01:56 | 36.26254 | 120.15686 | 4699 ft | 248 kts | 72° |
| 2026-05-05 01:56 | 36.26821 | 120.17742 | 5303 ft | 256 kts | 71° |
| 2026-05-05 01:57 | 36.27404 | 120.19869 | 5708 ft | 273 kts | 71° |
| 2026-05-05 01:57 | 36.28009 | 120.22145 | 6217 ft | 285 kts | 71° |
| 2026-05-05 01:57 | 36.28619 | 120.24496 | 6962 ft | 289 kts | 71° |
| 2026-05-05 01:57 | 36.29224 | 120.26852 | 7780 ft | 290 kts | 71° |
| 2026-05-05 01:58 | 36.29799 | 120.29237 | 8563 ft | 291 kts | 77° |
| 2026-05-05 01:58 | 36.29723 | 120.31715 | 9276 ft | 297 kts | 108° |
| 2026-05-05 01:58 | 36.28594 | 120.33842 | 9983 ft | 300 kts | 139° |
| 2026-05-05 01:58 | 36.26750 | 120.35067 | 10567 ft | 307 kts | 159° |
| 2026-05-05 01:59 | 36.24696 | 120.36002 | 10893 ft | 323 kts | 159° |
| 2026-05-05 01:59 | 36.22552 | 120.37045 | 11194 ft | 339 kts | 157° |
| 2026-05-05 01:59 | 36.20319 | 120.38202 | 11527 ft | 353 kts | 156° |
| 2026-05-05 01:59 | 36.18057 | 120.39418 | 12088 ft | 358 kts | 155° |
| 2026-05-05 02:00 | 36.15778 | 120.40670 | 12761 ft | 360 kts | 154° |
| 2026-05-05 02:00 | 36.13494 | 120.41938 | 13442 ft | 362 kts | 154° |
| 2026-05-05 02:00 | 36.11204 | 120.43219 | 14089 ft | 364 kts | 154° |
| 2026-05-05 02:00 | 36.08892 | 120.44518 | 14688 ft | 366 kts | 154° |
| 2026-05-05 02:01 | 36.06576 | 120.45819 | 15302 ft | 368 kts | 154° |
| 2026-05-05 02:01 | 36.04245 | 120.47129 | 15873 ft | 370 kts | 154° |
| 2026-05-05 02:01 | 36.01883 | 120.48455 | 16418 ft | 373 kts | 153° |
| 2026-05-05 02:01 | 35.99524 | 120.49780 | 16950 ft | 376 kts | 153° |
| 2026-05-05 02:02 | 35.97128 | 120.51125 | 17466 ft | 379 kts | 153° |
| 2026-05-05 02:02 | 35.94709 | 120.52480 | 17979 ft | 382 kts | 153° |
| 2026-05-05 02:02 | 35.92300 | 120.53832 | 18464 ft | 385 kts | 153° |
| 2026-05-05 02:02 | 35.89860 | 120.55199 | 18898 ft | 389 kts | 154° |
| 2026-05-05 02:03 | 35.87398 | 120.56580 | 19324 ft | 392 kts | 154° |
| 2026-05-05 02:03 | 35.84881 | 120.57988 | 19767 ft | 396 kts | 154° |
| 2026-05-05 02:03 | 35.82365 | 120.59394 | 20168 ft | 400 kts | 154° |
| 2026-05-05 02:03 | 35.79838 | 120.60805 | 20576 ft | 403 kts | 154° |
| 2026-05-05 02:04 | 35.77245 | 120.62251 | 20992 ft | 407 kts | 154° |
| 2026-05-05 02:04 | 35.74673 | 120.63686 | 21378 ft | 410 kts | 154° |
| 2026-05-05 02:04 | 35.72062 | 120.65142 | 21772 ft | 413 kts | 155° |
| 2026-05-05 02:04 | 35.69436 | 120.66572 | 22143 ft | 416 kts | 158° |
| 2026-05-05 02:05 | 35.66581 | 120.67282 | 22406 ft | 422 kts | 179° |
| 2026-05-05 02:05 | 35.63712 | 120.66816 | 22765 ft | 423 kts | 197° |
| 2026-05-05 02:05 | 35.60953 | 120.65526 | 23158 ft | 424 kts | 203° |
| 2026-05-05 02:05 | 35.58078 | 120.64646 | 23445 ft | 429 kts | 184° |
| 2026-05-05 02:06 | 35.55152 | 120.65102 | 23759 ft | 432 kts | 161° |
| 2026-05-05 02:06 | 35.52544 | 120.66862 | 24098 ft | 431 kts | 140° |
| 2026-05-05 02:06 | 35.50326 | 120.69353 | 24512 ft | 431 kts | 138° |
| 2026-05-05 02:06 | 35.47970 | 120.71648 | 24823 ft | 434 kts | 140° |
| 2026-05-05 02:07 | 35.45936 | 120.74372 | 25079 ft | 435 kts | 122° |
| 2026-05-05 02:07 | 35.44690 | 120.77712 | 25390 ft | 434 kts | 104° |
| 2026-05-05 02:07 | 35.44360 | 120.81368 | 25693 ft | 432 kts | 85° |
| 2026-05-05 02:07 | 35.44973 | 120.84911 | 25967 ft | 429 kts | 67° |
| 2026-05-05 02:08 | 35.46227 | 120.88245 | 26295 ft | 430 kts | 63° |
| 2026-05-05 02:08 | 35.47529 | 120.91572 | 26552 ft | 433 kts | 63° |
| 2026-05-05 02:08 | 35.48810 | 120.94884 | 26601 ft | 434 kts | 63° |
| 2026-05-05 02:08 | 35.50101 | 120.98257 | 26607 ft | 434 kts | 63° |
| 2026-05-05 02:09 | 35.51369 | 121.01595 | 26612 ft | 434 kts | 63° |
| 2026-05-05 02:09 | 35.52643 | 121.04971 | 26616 ft | 442 kts | 63° |
| 2026-05-05 02:09 | 35.53936 | 121.08404 | 26610 ft | 450 kts | 63° |
| 2026-05-05 02:09 | 35.55252 | 121.11910 | 26607 ft | 458 kts | 64° |
| 2026-05-05 02:10 | 35.56604 | 121.15517 | 26610 ft | 465 kts | 64° |
| 2026-05-05 02:10 | 35.57954 | 121.19125 | 26608 ft | 467 kts | 64° |
| 2026-05-05 02:10 | 35.59302 | 121.22735 | 26609 ft | 468 kts | 64° |
| 2026-05-05 02:10 | 35.60645 | 121.26334 | 26615 ft | 468 kts | 64° |
| 2026-05-05 02:11 | 35.62009 | 121.29997 | 26616 ft | 467 kts | 64° |
| 2026-05-05 02:11 | 35.63346 | 121.33588 | 26615 ft | 467 kts | 64° |
| 2026-05-05 02:11 | 35.64698 | 121.37226 | 26614 ft | 467 kts | 64° |
| 2026-05-05 02:11 | 35.66042 | 121.40859 | 26617 ft | 467 kts | 64° |
| 2026-05-05 02:12 | 35.67363 | 121.44452 | 26620 ft | 467 kts | 64° |
| 2026-05-05 02:12 | 35.70024 | 121.51718 | 26619 ft | 467 kts | 64° |
| 2026-05-05 02:12 | 35.71360 | 121.55368 | 26623 ft | 466 kts | 64° |
| 2026-05-05 02:13 | 35.72690 | 121.59012 | 26626 ft | 466 kts | 64° |
| 2026-05-05 02:13 | 35.74012 | 121.62633 | 26629 ft | 465 kts | 64° |
| 2026-05-05 02:13 | 35.75326 | 121.66239 | 26628 ft | 465 kts | 65° |
| 2026-05-05 02:13 | 35.76655 | 121.69888 | 26630 ft | 465 kts | 65° |
| 2026-05-05 02:14 | 35.77961 | 121.73483 | 26624 ft | 465 kts | 65° |
| 2026-05-05 02:14 | 35.79282 | 121.77118 | 26631 ft | 465 kts | 65° |
| 2026-05-05 02:14 | 35.80588 | 121.80718 | 26628 ft | 465 kts | 65° |
| 2026-05-05 02:14 | 35.81916 | 121.84380 | 26633 ft | 465 kts | 65° |
| 2026-05-05 02:15 | 35.83214 | 121.87963 | 26634 ft | 464 kts | 65° |
| 2026-05-05 02:15 | 35.84525 | 121.91589 | 26636 ft | 464 kts | 65° |
| 2026-05-05 02:15 | 35.85849 | 121.95255 | 26638 ft | 464 kts | 65° |
| 2026-05-05 02:15 | 35.87145 | 121.98846 | 26640 ft | 464 kts | 65° |
| 2026-05-05 02:16 | 35.88464 | 122.02510 | 26638 ft | 465 kts | 65° |
| 2026-05-05 02:16 | 35.89764 | 122.06123 | 26644 ft | 465 kts | 65° |
| 2026-05-05 02:16 | 35.91079 | 122.09780 | 26642 ft | 464 kts | 65° |
| 2026-05-05 02:16 | 35.92370 | 122.13376 | 26641 ft | 464 kts | 65° |
| 2026-05-05 02:17 | 35.93678 | 122.17022 | 26646 ft | 464 kts | 65° |
| 2026-05-05 02:17 | 35.94977 | 122.20647 | 26644 ft | 464 kts | 65° |
| 2026-05-05 02:17 | 35.96270 | 122.24263 | 26645 ft | 463 kts | 65° |
| 2026-05-05 02:17 | 35.97579 | 122.27924 | 26645 ft | 463 kts | 65° |
| 2026-05-05 02:18 | 35.98862 | 122.31518 | 26648 ft | 463 kts | 65° |
| 2026-05-05 02:18 | 36.00165 | 122.35170 | 26647 ft | 463 kts | 65° |
| 2026-05-05 02:18 | 36.01451 | 122.38780 | 26650 ft | 463 kts | 65° |
| 2026-05-05 02:18 | 36.02742 | 122.42412 | 26651 ft | 463 kts | 65° |
| 2026-05-05 02:19 | 36.04042 | 122.46071 | 26652 ft | 462 kts | 65° |
| 2026-05-05 02:19 | 36.05320 | 122.49671 | 26654 ft | 462 kts | 65° |
| 2026-05-05 02:19 | 36.06614 | 122.53326 | 26651 ft | 462 kts | 65° |
| 2026-05-05 02:19 | 36.07894 | 122.56941 | 26656 ft | 462 kts | 65° |
| 2026-05-05 02:20 | 36.09175 | 122.60563 | 26654 ft | 463 kts | 65° |
| 2026-05-05 02:20 | 36.10455 | 122.64188 | 26654 ft | 463 kts | 65° |
| 2026-05-05 02:20 | 36.11742 | 122.67834 | 26652 ft | 463 kts | 65° |
| 2026-05-05 02:20 | 36.13034 | 122.71500 | 26655 ft | 463 kts | 66° |
| 2026-05-05 02:21 | 36.14316 | 122.75143 | 26654 ft | 463 kts | 66° |
| 2026-05-05 02:21 | 36.15589 | 122.78761 | 26656 ft | 463 kts | 66° |
| 2026-05-05 02:21 | 36.16869 | 122.82407 | 26653 ft | 463 kts | 66° |
| 2026-05-05 02:21 | 36.18146 | 122.86049 | 26653 ft | 463 kts | 66° |
| 2026-05-05 02:22 | 36.19435 | 122.89729 | 26656 ft | 463 kts | 66° |
| 2026-05-05 02:22 | 36.20702 | 122.93353 | 26657 ft | 463 kts | 66° |
| 2026-05-05 02:22 | 36.21987 | 122.97029 | 26657 ft | 463 kts | 65° |
| 2026-05-05 02:22 | 36.23263 | 123.00688 | 26658 ft | 463 kts | 65° |
| 2026-05-05 02:23 | 36.24535 | 123.04333 | 26715 ft | 466 kts | 65° |
| 2026-05-05 02:23 | 36.25814 | 123.08009 | 26961 ft | 466 kts | 65° |
| 2026-05-05 02:23 | 36.27086 | 123.11669 | 27211 ft | 467 kts | 65° |
| 2026-05-05 02:23 | 36.28372 | 123.15369 | 27464 ft | 467 kts | 65° |
| 2026-05-05 02:24 | 36.29641 | 123.19030 | 28108 ft | 459 kts | 65° |
| 2026-05-05 02:24 | 36.30889 | 123.22636 | 28872 ft | 449 kts | 65° |
| 2026-05-05 02:24 | 36.32108 | 123.26160 | 29318 ft | 447 kts | 65° |
| 2026-05-05 02:24 | 36.33325 | 123.29682 | 29548 ft | 449 kts | 65° |
| 2026-05-05 02:25 | 36.34567 | 123.33277 | 29761 ft | 452 kts | 65° |
| 2026-05-05 02:25 | 36.35855 | 123.36855 | 30012 ft | 453 kts | 61° |
| 2026-05-05 02:25 | 36.37573 | 123.40112 | 30242 ft | 453 kts | 50° |
| 2026-05-05 02:25 | 36.39765 | 123.42900 | 30483 ft | 452 kts | 39° |
| 2026-05-05 02:26 | 36.42265 | 123.45176 | 30778 ft | 450 kts | 33° |
| 2026-05-05 02:26 | 36.44878 | 123.47362 | 31091 ft | 450 kts | 32° |
| 2026-05-05 02:26 | 36.47488 | 123.49519 | 31146 ft | 451 kts | 32° |
| 2026-05-05 02:27 | 36.52688 | 123.53844 | 31164 ft | 451 kts | 32° |
| 2026-05-05 02:27 | 36.57873 | 123.58196 | 31165 ft | 451 kts | 32° |
| 2026-05-05 02:28 | 36.63040 | 123.62553 | 31165 ft | 450 kts | 32° |
| 2026-05-05 02:28 | 36.68239 | 123.66917 | 31164 ft | 451 kts | 33° |
| 2026-05-05 02:29 | 36.73452 | 123.71259 | 31160 ft | 450 kts | 33° |
| 2026-05-05 02:29 | 36.78570 | 123.75720 | 31166 ft | 448 kts | 27° |
| 2026-05-05 02:30 | 36.84086 | 123.79265 | 31101 ft | 447 kts | 26° |
| 2026-05-05 02:30 | 36.89630 | 123.82770 | 31071 ft | 447 kts | 26° |
| 2026-05-05 02:31 | 36.95177 | 123.86304 | 31065 ft | 447 kts | 26° |
| 2026-05-05 02:31 | 37.00711 | 123.89844 | 31064 ft | 447 kts | 26° |
| 2026-05-05 02:32 | 37.06235 | 123.93388 | 31061 ft | 446 kts | 26° |
| 2026-05-05 02:32 | 37.11401 | 123.97629 | 30719 ft | 442 kts | 41° |
| 2026-05-05 02:32 | 37.13453 | 124.00446 | 30466 ft | 434 kts | 51° |
| 2026-05-05 02:33 | 37.15077 | 124.03603 | 30209 ft | 436 kts | 60° |
| 2026-05-05 02:33 | 37.16280 | 124.07104 | 29951 ft | 438 kts | 70° |
| 2026-05-05 02:33 | 37.17010 | 124.10841 | 29489 ft | 442 kts | 79° |
| 2026-05-05 02:33 | 37.17277 | 124.14671 | 29052 ft | 445 kts | 85° |
| 2026-05-05 02:34 | 37.17411 | 124.18563 | 28601 ft | 446 kts | 86° |
| 2026-05-05 02:34 | 37.17528 | 124.22427 | 28153 ft | 443 kts | 86° |
| 2026-05-05 02:34 | 37.17645 | 124.26234 | 27712 ft | 441 kts | 86° |
| 2026-05-05 02:34 | 37.17740 | 124.30074 | 27266 ft | 438 kts | 86° |
| 2026-05-05 02:35 | 37.17828 | 124.33839 | 26824 ft | 433 kts | 86° |
| 2026-05-05 02:35 | 37.17916 | 124.37613 | 26370 ft | 427 kts | 86° |
| 2026-05-05 02:35 | 37.18003 | 124.41252 | 25928 ft | 421 kts | 86° |
| 2026-05-05 02:35 | 37.18091 | 124.44909 | 25480 ft | 415 kts | 86° |
| 2026-05-05 02:36 | 37.18193 | 124.49300 | 25076 ft | 406 kts | 86° |
| 2026-05-05 02:36 | 37.18274 | 124.52825 | 25073 ft | 406 kts | 86° |
| 2026-05-05 02:36 | 37.18356 | 124.56348 | 25073 ft | 406 kts | 86° |
| 2026-05-05 02:36 | 37.18436 | 124.59883 | 25074 ft | 406 kts | 86° |
| 2026-05-05 02:37 | 37.18515 | 124.63425 | 25074 ft | 406 kts | 86° |
| 2026-05-05 02:37 | 37.18592 | 124.66978 | 25075 ft | 406 kts | 87° |
| 2026-05-05 02:37 | 37.18669 | 124.70480 | 25077 ft | 406 kts | 87° |
| 2026-05-05 02:37 | 37.18745 | 124.74049 | 25016 ft | 407 kts | 87° |
| 2026-05-05 02:38 | 37.18820 | 124.77606 | 24754 ft | 404 kts | 87° |
| 2026-05-05 02:38 | 37.18891 | 124.81072 | 24499 ft | 402 kts | 87° |
| 2026-05-05 02:38 | 37.18961 | 124.84580 | 24235 ft | 401 kts | 87° |
| 2026-05-05 02:38 | 37.19031 | 124.88077 | 23924 ft | 400 kts | 87° |
| 2026-05-05 02:39 | 37.19099 | 124.91537 | 23546 ft | 395 kts | 87° |
| 2026-05-05 02:39 | 37.19166 | 124.94958 | 23155 ft | 389 kts | 87° |
| 2026-05-05 02:39 | 37.19230 | 124.98310 | 22774 ft | 384 kts | 87° |
| 2026-05-05 02:39 | 37.19292 | 125.01612 | 22401 ft | 378 kts | 87° |
| 2026-05-05 02:40 | 37.19352 | 125.04875 | 22002 ft | 374 kts | 87° |
| 2026-05-05 02:40 | 37.19413 | 125.08107 | 21562 ft | 371 kts | 87° |
| 2026-05-05 02:40 | 37.19472 | 125.11340 | 21117 ft | 368 kts | 87° |
| 2026-05-05 02:40 | 37.19530 | 125.14532 | 20673 ft | 365 kts | 88° |
| 2026-05-05 02:41 | 37.19585 | 125.17714 | 20233 ft | 362 kts | 88° |
| 2026-05-05 02:41 | 37.19640 | 125.20824 | 19807 ft | 359 kts | 88° |
| 2026-05-05 02:41 | 37.19693 | 125.23941 | 19373 ft | 356 kts | 88° |
| 2026-05-05 02:41 | 37.19565 | 125.26995 | 18946 ft | 354 kts | 97° |
| 2026-05-05 02:42 | 37.19125 | 125.30026 | 18695 ft | 345 kts | 101° |
| 2026-05-05 02:42 | 37.18644 | 125.32917 | 18509 ft | 335 kts | 101° |
| 2026-05-05 02:42 | 37.18167 | 125.35723 | 18307 ft | 326 kts | 101° |
| 2026-05-05 02:42 | 37.17698 | 125.38476 | 17977 ft | 322 kts | 101° |
| 2026-05-05 02:43 | 37.17239 | 125.41200 | 17581 ft | 320 kts | 101° |
| 2026-05-05 02:43 | 37.16781 | 125.43903 | 17190 ft | 317 kts | 101° |
| 2026-05-05 02:43 | 37.16321 | 125.46631 | 16803 ft | 315 kts | 101° |
| 2026-05-05 02:43 | 37.15878 | 125.49281 | 16419 ft | 313 kts | 101° |
| 2026-05-05 02:44 | 37.15435 | 125.51948 | 16031 ft | 310 kts | 101° |
| 2026-05-05 02:44 | 37.15001 | 125.54569 | 15642 ft | 308 kts | 101° |
| 2026-05-05 02:44 | 37.14571 | 125.57166 | 15255 ft | 306 kts | 101° |
| 2026-05-05 02:44 | 37.14136 | 125.59782 | 15101 ft | 303 kts | 101° |
| 2026-05-05 02:45 | 37.13704 | 125.62376 | 15096 ft | 305 kts | 101° |
| 2026-05-05 02:45 | 37.13272 | 125.64973 | 15098 ft | 306 kts | 101° |
| 2026-05-05 02:45 | 37.13098 | 125.67609 | 15053 ft | 303 kts | 83° |
| 2026-05-05 02:45 | 37.13709 | 125.70107 | 14771 ft | 300 kts | 66° |
| 2026-05-05 02:46 | 37.14659 | 125.72433 | 14330 ft | 301 kts | 62° |
| 2026-05-05 02:46 | 37.15669 | 125.74716 | 13911 ft | 300 kts | 62° |
| 2026-05-05 02:46 | 37.16690 | 125.76987 | 13523 ft | 298 kts | 62° |
| 2026-05-05 02:46 | 37.17711 | 125.79243 | 13126 ft | 297 kts | 62° |
| 2026-05-05 02:47 | 37.18731 | 125.81477 | 12720 ft | 297 kts | 61° |
| 2026-05-05 02:47 | 37.19760 | 125.83727 | 12291 ft | 297 kts | 61° |
| 2026-05-05 02:47 | 37.20783 | 125.85964 | 11869 ft | 297 kts | 61° |
| 2026-05-05 02:47 | 37.21815 | 125.88229 | 11468 ft | 296 kts | 61° |
| 2026-05-05 02:48 | 37.22832 | 125.90466 | 11063 ft | 295 kts | 61° |
| 2026-05-05 02:48 | 37.23848 | 125.92701 | 10669 ft | 295 kts | 60° |
| 2026-05-05 02:48 | 37.25121 | 125.94685 | 10224 ft | 296 kts | 39° |
| 2026-05-05 02:48 | 37.26806 | 125.96168 | 9842 ft | 294 kts | 33° |
| 2026-05-05 02:49 | 37.28543 | 125.97517 | 9453 ft | 293 kts | 31° |
| 2026-05-05 02:49 | 37.30291 | 125.98844 | 9059 ft | 292 kts | 31° |
| 2026-05-05 02:49 | 37.32014 | 126.00152 | 8671 ft | 292 kts | 31° |
| 2026-05-05 02:49 | 37.33754 | 126.01478 | 8289 ft | 290 kts | 31° |
| 2026-05-05 02:50 | 37.35472 | 126.02794 | 8019 ft | 288 kts | 31° |
| 2026-05-05 02:50 | 37.37187 | 126.04112 | 7754 ft | 288 kts | 31° |
| 2026-05-05 02:50 | 37.38880 | 126.05420 | 7489 ft | 288 kts | 31° |
| 2026-05-05 02:50 | 37.40586 | 126.06739 | 7246 ft | 287 kts | 31° |
| 2026-05-05 02:51 | 37.42281 | 126.08049 | 7009 ft | 286 kts | 31° |
| 2026-05-05 02:51 | 37.43993 | 126.09374 | 6945 ft | 286 kts | 31° |
| 2026-05-05 02:51 | 37.45776 | 126.10407 | 6887 ft | 282 kts | 12° |
| 2026-05-05 02:51 | 37.47723 | 126.10744 | 6577 ft | 279 kts | 3° |
| 2026-05-05 02:52 | 37.49654 | 126.10905 | 6147 ft | 280 kts | 1° |
| 2026-05-05 02:52 | 37.51593 | 126.11033 | 5914 ft | 273 kts | 1° |
| 2026-05-05 02:52 | 37.53464 | 126.11156 | 5733 ft | 264 kts | 1° |
| 2026-05-05 02:52 | 37.55251 | 126.11278 | 5566 ft | 255 kts | 1° |
| 2026-05-05 02:53 | 37.57013 | 126.11401 | 5392 ft | 248 kts | 1° |
| 2026-05-05 02:53 | 37.58731 | 126.11528 | 5118 ft | 245 kts | 3° |
| 2026-05-05 02:53 | 37.60360 | 126.12119 | 4752 ft | 249 kts | 32° |
| 2026-05-05 02:53 | 37.61546 | 126.13660 | 4417 ft | 246 kts | 64° |
| 2026-05-05 02:54 | 37.62101 | 126.15665 | 4115 ft | 242 kts | 78° |
| 2026-05-05 02:54 | 37.62469 | 126.17735 | 3804 ft | 240 kts | 80° |
| 2026-05-05 02:54 | 37.62803 | 126.19801 | 3510 ft | 239 kts | 81° |
| 2026-05-05 02:54 | 37.63126 | 126.21825 | 3321 ft | 233 kts | 81° |
| 2026-05-05 02:55 | 37.63440 | 126.23775 | 3213 ft | 221 kts | 81° |
| 2026-05-05 02:55 | 37.63743 | 126.25634 | 3072 ft | 209 kts | 81° |
| 2026-05-05 02:55 | 37.64030 | 126.27369 | 2948 ft | 194 kts | 81° |
| 2026-05-05 02:55 | 37.64249 | 126.28944 | 2906 ft | 172 kts | 94° |
| 2026-05-05 02:56 | 37.64078 | 126.30375 | 2896 ft | 157 kts | 108° |
| 2026-05-05 02:56 | 37.63800 | 126.31670 | 2651 ft | 154 kts | 110° |
| 2026-05-05 02:56 | 37.63496 | 126.32989 | 2287 ft | 156 kts | 111° |
| 2026-05-05 02:56 | 37.63142 | 126.34278 | 1943 ft | 154 kts | 125° |
| 2026-05-05 02:57 | 37.62379 | 126.35113 | 1714 ft | 142 kts | 157° |
| 2026-05-05 02:57 | 37.61412 | 126.35371 | 1915 ft | 147 kts | 184° |
| 2026-05-05 02:57 | 37.60395 | 126.35264 | 2460 ft | 148 kts | 188° |
| 2026-05-05 02:57 | 37.59388 | 126.35077 | 3013 ft | 149 kts | 191° |
| 2026-05-05 02:58 | 37.58336 | 126.34861 | 3456 ft | 158 kts | 191° |
| 2026-05-05 02:58 | 37.57191 | 126.34621 | 3815 ft | 174 kts | 191° |
| 2026-05-05 02:58 | 37.55903 | 126.34348 | 3936 ft | 204 kts | 191° |
| 2026-05-05 02:58 | 37.54491 | 126.34042 | 3949 ft | 209 kts | 191° |
| 2026-05-05 02:59 | 37.53041 | 126.33723 | 3952 ft | 210 kts | 191° |
| 2026-05-05 02:59 | 37.51594 | 126.33403 | 3952 ft | 211 kts | 191° |
| 2026-05-05 02:59 | 37.50145 | 126.33080 | 3950 ft | 211 kts | 191° |
| 2026-05-05 02:59 | 37.48698 | 126.32758 | 3883 ft | 210 kts | 191° |
| 2026-05-05 03:00 | 37.47252 | 126.32411 | 3904 ft | 209 kts | 198° |
| 2026-05-05 03:00 | 37.46042 | 126.31454 | 3921 ft | 209 kts | 231° |
| 2026-05-05 03:00 | 37.45500 | 126.29782 | 3940 ft | 214 kts | 264° |
| 2026-05-05 03:00 | 37.45655 | 126.27883 | 3974 ft | 217 kts | 278° |
| 2026-05-05 03:01 | 37.45993 | 126.26032 | 3956 ft | 217 kts | 281° |
| 2026-05-05 03:01 | 37.46363 | 126.24190 | 3957 ft | 217 kts | 281° |
| 2026-05-05 03:01 | 37.46740 | 126.22342 | 3958 ft | 217 kts | 281° |
| 2026-05-05 03:01 | 37.47113 | 126.20506 | 3963 ft | 217 kts | 281° |
| 2026-05-05 03:02 | 37.47488 | 126.18662 | 3952 ft | 217 kts | 281° |
| 2026-05-05 03:02 | 37.47863 | 126.16818 | 3948 ft | 217 kts | 281° |
| 2026-05-05 03:02 | 37.48242 | 126.14966 | 3953 ft | 217 kts | 281° |
| 2026-05-05 03:02 | 37.48621 | 126.13126 | 3959 ft | 217 kts | 281° |
| 2026-05-05 03:03 | 37.49056 | 126.11311 | 3948 ft | 219 kts | 293° |
| 2026-05-05 03:03 | 37.50063 | 126.09867 | 3860 ft | 228 kts | 326° |
| 2026-05-05 03:03 | 37.51581 | 126.09300 | 3623 ft | 231 kts | 359° |
| 2026-05-05 03:03 | 37.53090 | 126.09817 | 3470 ft | 220 kts | 25° |
| 2026-05-05 03:04 | 37.54414 | 126.10732 | 3216 ft | 213 kts | 30° |
| 2026-05-05 03:04 | 37.55662 | 126.11659 | 2956 ft | 206 kts | 31° |
| 2026-05-05 03:04 | 37.56878 | 126.12572 | 2699 ft | 202 kts | 31° |
| 2026-05-05 03:04 | 37.58097 | 126.13487 | 2444 ft | 201 kts | 31° |
| 2026-05-05 03:05 | 37.59279 | 126.14375 | 2195 ft | 199 kts | 31° |
| 2026-05-05 03:05 | 37.60290 | 126.15520 | 1967 ft | 195 kts | 60° |
| 2026-05-05 03:05 | 37.60881 | 126.17063 | 1974 ft | 194 kts | 70° |
| 2026-05-05 03:05 | 37.61397 | 126.18635 | 1961 ft | 193 kts | 71° |
| 2026-05-05 03:06 | 37.61786 | 126.20238 | 1940 ft | 190 kts | 90° |
| 2026-05-05 03:06 | 37.61598 | 126.21851 | 1963 ft | 186 kts | 108° |
| 2026-05-05 03:06 | 37.61247 | 126.23429 | 1852 ft | 185 kts | 110° |
| 2026-05-05 03:06 | 37.60880 | 126.24982 | 1723 ft | 184 kts | 111° |
| 2026-05-05 03:07 | 37.60506 | 126.26537 | 1599 ft | 185 kts | 111° |
| 2026-05-05 03:07 | 37.60132 | 126.28085 | 1557 ft | 184 kts | 111° |
| 2026-05-05 03:07 | 37.59646 | 126.29542 | 1544 ft | 180 kts | 129° |
| 2026-05-05 03:07 | 37.58784 | 126.30671 | 1557 ft | 178 kts | 143° |
| 2026-05-05 03:08 | 37.57807 | 126.31628 | 1553 ft | 177 kts | 146° |
| 2026-05-05 03:08 | 37.56799 | 126.32537 | 1552 ft | 175 kts | 147° |
| 2026-05-05 03:08 | 37.55851 | 126.33377 | 1519 ft | 158 kts | 147° |
| 2026-05-05 03:08 | 37.54958 | 126.34167 | 1537 ft | 156 kts | 148° |
| 2026-05-05 03:09 | 37.54072 | 126.34950 | 1553 ft | 156 kts | 148° |
| 2026-05-05 03:09 | 37.53186 | 126.35736 | 1536 ft | 154 kts | 148° |
| 2026-05-05 03:09 | 37.52342 | 126.36488 | 1340 ft | 144 kts | 148° |
| 2026-05-05 03:09 | 37.51528 | 126.37212 | 1142 ft | 141 kts | 148° |
| 2026-05-05 03:10 | 37.50728 | 126.37923 | 955 ft | 141 kts | 148° |
| 2026-05-05 03:10 | 37.49924 | 126.38638 | 772 ft | 141 kts | 148° |
| 2026-05-05 03:10 | 37.49110 | 126.39350 | 603 ft | 142 kts | 149° |
| 2026-05-05 03:10 | 37.48298 | 126.40061 | 416 ft | 141 kts | 147° |
| 2026-05-05 03:11 | 37.47502 | 126.40771 | 221 ft | 138 kts | 145° |
| 2026-05-05 03:11 | 37.46719 | 126.41479 | 47 ft | 138 kts | 148° |
| 2026-05-05 03:11 | 37.46006 | 126.42108 | 29 ft | 103 kts | 144° |
| 2026-05-05 03:11 | 37.45563 | 126.42507 | 29 ft | 54 kts | 137° |
| 2026-05-05 03:12 | 37.45355 | 126.42720 | 29 ft | 33 kts | 126° |
| 2026-05-05 03:12 | 37.45276 | 126.42931 | 29 ft | 16 kts | 110° |
| 2026-05-05 03:12 | 37.45224 | 126.43058 | 29 ft | 16 kts | 130° |
| 2026-05-05 03:12 | 37.45136 | 126.43147 | 29 ft | 13 kts | 143° |
| 2026-05-05 03:13 | 37.45124 | 126.43159 | 29 ft | 2 kts | 144° |
| 2026-05-05 03:13 | 37.45082 | 126.43198 | 29 ft | 10 kts | 132° |
| 2026-05-05 03:13 | 37.45096 | 126.43280 | 29 ft | 10 kts | 55° |
| 2026-05-05 03:13 | 37.45142 | 126.43361 | 29 ft | 11 kts | 54° |
| 2026-05-05 03:14 | 37.45192 | 126.43447 | 29 ft | 12 kts | 52° |
| 2026-05-05 03:14 | 37.45240 | 126.43537 | 29 ft | 12 kts | 57° |
| 2026-05-05 03:14 | 37.45257 | 126.43567 | 29 ft | 3 kts | 52° |
| 2026-05-05 03:14 | 37.45280 | 126.43581 | 29 ft | 4 kts | 5° |
| 2026-05-05 03:15 | 37.45314 | 126.43566 | 29 ft | 5 kts | 325° |
| 2026-05-05 03:15 | 37.45350 | 126.43534 | 29 ft | 6 kts | 323° |
| 2026-05-05 03:15 | 37.45392 | 126.43496 | 29 ft | 7 kts | 324° |
| 2026-05-05 03:15 | 37.45439 | 126.43453 | 29 ft | 8 kts | 324° |
| 2026-05-05 03:16 | 37.45493 | 126.43405 | 29 ft | 10 kts | 324° |
| 2026-05-05 03:16 | 37.45547 | 126.43358 | 29 ft | 7 kts | 324° |
| 2026-05-05 03:16 | 37.45566 | 126.43341 | 29 ft | 2 kts | 324° |
| 2026-05-05 03:16 | 37.45583 | 126.43327 | 29 ft | 3 kts | 324° |
| 2026-05-05 03:17 | 37.45607 | 126.43304 | 29 ft | 4 kts | 324° |
| 2026-05-05 03:17 | 37.45639 | 126.43276 | 29 ft | 6 kts | 324° |
| 2026-05-05 03:17 | 37.45677 | 126.43241 | 29 ft | 7 kts | 324° |
| 2026-05-05 03:17 | 37.45723 | 126.43201 | 29 ft | 8 kts | 324° |
| 2026-05-05 03:18 | 37.45777 | 126.43165 | 29 ft | 9 kts | 359° |
| 2026-05-05 03:18 | 37.45828 | 126.43217 | 29 ft | 10 kts | 53° |
| 2026-05-05 03:18 | 37.45873 | 126.43295 | 29 ft | 11 kts | 54° |
| 2026-05-05 03:18 | 37.45920 | 126.43378 | 29 ft | 12 kts | 54° |
| 2026-05-05 03:19 | 37.46022 | 126.43561 | 29 ft | 13 kts | 54° |
| 2026-05-05 03:19 | 37.46078 | 126.43658 | 29 ft | 13 kts | 54° |
| 2026-05-05 03:19 | 37.46151 | 126.43719 | 29 ft | 13 kts | 345° |
| 2026-05-05 03:20 | 37.46231 | 126.43652 | 29 ft | 13 kts | 323° |
| 2026-05-05 03:20 | 37.46312 | 126.43581 | 29 ft | 14 kts | 324° |
| 2026-05-05 03:20 | 37.46349 | 126.43527 | 29 ft | 6 kts | 266° |
| 2026-05-05 03:20 | 37.46323 | 126.43476 | 29 ft | 7 kts | 236° |
| 2026-05-05 03:21 | 37.46304 | 126.43439 | 29 ft | 0 kts | 238° |